This is the latest recevied weather packets stored in our database for station/object EA6MW-10. If no packets are shown the sender has not sent any weather packets the latest 1 day(s).
| Time | Temp. | Humidity | Pressure | Rain* | Wind** | Luminosity | Snow |
|---|---|---|---|---|---|---|---|
| 1778054081 | 28.33° C | 44% | 1013 hPa | - | - | - | - |
| 1778053180 | 25.56° C | 48% | 1013 hPa | - | - | - | - |
| 1778052280 | 27.78° C | 48% | 1013.1 hPa | - | - | - | - |
| 1778051380 | 24.44° C | 57% | 1013 hPa | - | - | - | - |
| 1778050480 | 23.89° C | 57% | 1013.1 hPa | - | - | - | - |
| 1778049579 | 21.67° C | 65% | 1013.1 hPa | - | - | - | - |
| 1778048679 | 18.89° C | 71% | 1013.1 hPa | - | - | - | - |
| 1778047778 | 16.11° C | 85% | 1013.2 hPa | - | - | - | - |
| 1778046878 | 12.22° C | 95% | 1013.3 hPa | - | - | - | - |
| 1778045978 | 11.67° C | 96% | 1013.1 hPa | - | - | - | - |
| 1778045078 | 11.11° C | 96% | 1012.8 hPa | - | - | - | - |
| 1778042377 | 10.56° C | 96% | 1012.6 hPa | - | - | - | - |
| 1778041477 | 10.56° C | 95% | 1012.6 hPa | - | - | - | - |
| 1778040577 | 10.56° C | 95% | 1012.4 hPa | - | - | - | - |
| 1778039677 | 10.56° C | 94% | 1012.4 hPa | - | - | - | - |
| 1778038776 | 11.11° C | 94% | 1012.3 hPa | - | - | - | - |
| 1778037876 | 11.11° C | 93% | 1012.2 hPa | - | - | - | - |
| 1778036976 | 11.11° C | 92% | 1012.2 hPa | - | - | - | - |
| 1778036075 | 11.67° C | 90% | 1012 hPa | - | - | - | - |
| 1778035175 | 11.67° C | 91% | 1012.1 hPa | - | - | - | - |
| 1778034275 | 11.67° C | 93% | 1012 hPa | - | - | - | - |
| 1778033375 | 12.22° C | 91% | 1011.9 hPa | - | - | - | - |
| 1778032475 | 12.78° C | 92% | 1012.1 hPa | - | - | - | - |
* Rain since midnight (hover to see other rain measurements)
** Current wind speed in m/s (hover to see current wind gust speed)